Bentley, Michigan
Current Conditions -  °F | °C
As of 3:12 AM on Tuesday 21 Oct 2014 (Local Time) from KIKW Reporting Station
Overcast Overcast  
Wind Chill: 46°   Ceiling: 3500
Heat Index: 48°   Visibility: 10mi
Dew Point: 43°   Wind: 6mph
Humidity: 82%   Direction: 320°NW
Pressure: 29.91"   Gusts: NA
Location:  43.95°N, 84.13°W
Report Text: KIKW 210712Z AUTO 32005KT 10SM OVC035 09/06 A2991 RMK AO2 T00900060
Loading
Personal Weather Stations






























Interactive Weather Map
Tropical Storm Tracking
New forecast layout! Learn more

10-Day Weather Forecast

Advertisements
Track Severe Weather on mobile